sensor_id;sensor_type;location;lat;lon;timestamp;P1;durP1;ratioP1;P2;durP2;ratioP2
72791;SDS011;60907;53.268;8.764;2022-12-29T00:01:36;6.63;;;4.82;;
72791;SDS011;60907;53.268;8.764;2022-12-29T00:04:02;7.32;;;4.85;;
72791;SDS011;60907;53.268;8.764;2022-12-29T00:06:28;7.07;;;4.63;;
72791;SDS011;60907;53.268;8.764;2022-12-29T00:08:54;6.32;;;5.00;;
72791;SDS011;60907;53.268;8.764;2022-12-29T00:11:24;7.50;;;4.70;;
72791;SDS011;60907;53.268;8.764;2022-12-29T00:13:50;9.27;;;5.30;;
72791;SDS011;60907;53.268;8.764;2022-12-29T00:16:35;6.30;;;4.57;;
72791;SDS011;60907;53.268;8.764;2022-12-29T00:19:01;7.22;;;4.70;;
72791;SDS011;60907;53.268;8.764;2022-12-29T00:21:28;6.78;;;5.20;;
72791;SDS011;60907;53.268;8.764;2022-12-29T00:24:19;8.73;;;4.78;;
72791;SDS011;60907;53.268;8.764;2022-12-29T00:26:56;6.03;;;4.60;;
72791;SDS011;60907;53.268;8.764;2022-12-29T00:29:46;7.35;;;4.75;;
72791;SDS011;60907;53.268;8.764;2022-12-29T00:32:31;6.32;;;4.80;;
72791;SDS011;60907;53.268;8.764;2022-12-29T00:35:19;6.00;;;4.50;;
72791;SDS011;60907;53.268;8.764;2022-12-29T00:37:48;7.40;;;4.18;;
72791;SDS011;60907;53.268;8.764;2022-12-29T00:40:32;5.78;;;4.30;;
72791;SDS011;60907;53.268;8.764;2022-12-29T00:43:16;9.13;;;5.63;;
72791;SDS011;60907;53.268;8.764;2022-12-29T00:46:00;6.68;;;4.88;;
72791;SDS011;60907;53.268;8.764;2022-12-29T00:48:25;7.87;;;6.00;;
72791;SDS011;60907;53.268;8.764;2022-12-29T00:51:09;8.88;;;5.53;;
72791;SDS011;60907;53.268;8.764;2022-12-29T00:53:35;8.95;;;6.20;;
72791;SDS011;60907;53.268;8.764;2022-12-29T00:56:00;8.43;;;5.83;;
72791;SDS011;60907;53.268;8.764;2022-12-29T00:58:29;12.33;;;7.00;;
72791;SDS011;60907;53.268;8.764;2022-12-29T01:01:05;9.23;;;6.03;;
72791;SDS011;60907;53.268;8.764;2022-12-29T01:03:32;12.05;;;6.75;;
72791;SDS011;60907;53.268;8.764;2022-12-29T01:06:05;8.68;;;5.93;;
72791;SDS011;60907;53.268;8.764;2022-12-29T01:08:32;10.40;;;6.63;;
72791;SDS011;60907;53.268;8.764;2022-12-29T01:10:58;10.95;;;7.05;;
72791;SDS011;60907;53.268;8.764;2022-12-29T01:13:34;10.07;;;6.90;;
72791;SDS011;60907;53.268;8.764;2022-12-29T01:16:00;12.23;;;7.43;;
72791;SDS011;60907;53.268;8.764;2022-12-29T01:18:26;11.30;;;7.45;;
72791;SDS011;60907;53.268;8.764;2022-12-29T01:21:02;11.35;;;7.15;;
72791;SDS011;60907;53.268;8.764;2022-12-29T01:23:30;13.30;;;7.22;;
72791;SDS011;60907;53.268;8.764;2022-12-29T01:28:22;11.45;;;7.25;;
72791;SDS011;60907;53.268;8.764;2022-12-29T01:30:47;11.57;;;6.05;;
72791;SDS011;60907;53.268;8.764;2022-12-29T01:33:13;11.80;;;7.22;;
72791;SDS011;60907;53.268;8.764;2022-12-29T01:35:38;10.95;;;7.32;;
72791;SDS011;60907;53.268;8.764;2022-12-29T01:38:04;10.85;;;7.13;;
72791;SDS011;60907;53.268;8.764;2022-12-29T01:40:29;8.33;;;6.00;;
72791;SDS011;60907;53.268;8.764;2022-12-29T01:42:54;8.43;;;5.40;;
72791;SDS011;60907;53.268;8.764;2022-12-29T01:45:20;8.75;;;5.47;;
72791;SDS011;60907;53.268;8.764;2022-12-29T01:47:47;9.20;;;5.57;;
72791;SDS011;60907;53.268;8.764;2022-12-29T01:50:16;8.77;;;5.95;;
72791;SDS011;60907;53.268;8.764;2022-12-29T01:52:56;8.02;;;5.20;;
72791;SDS011;60907;53.268;8.764;2022-12-29T01:55:33;7.35;;;5.03;;
72791;SDS011;60907;53.268;8.764;2022-12-29T01:58:02;6.35;;;4.80;;
72791;SDS011;60907;53.268;8.764;2022-12-29T02:00:29;10.40;;;5.88;;
72791;SDS011;60907;53.268;8.764;2022-12-29T02:02:55;7.50;;;5.80;;
72791;SDS011;60907;53.268;8.764;2022-12-29T02:08:02;6.05;;;4.47;;
72791;SDS011;60907;53.268;8.764;2022-12-29T02:10:29;7.45;;;4.50;;
72791;SDS011;60907;53.268;8.764;2022-12-29T02:12:56;7.78;;;4.78;;
72791;SDS011;60907;53.268;8.764;2022-12-29T02:15:24;6.30;;;4.63;;
72791;SDS011;60907;53.268;8.764;2022-12-29T02:18:05;7.50;;;4.55;;
72791;SDS011;60907;53.268;8.764;2022-12-29T02:26:41;6.20;;;4.65;;
72791;SDS011;60907;53.268;8.764;2022-12-29T02:32:06;6.30;;;4.05;;
72791;SDS011;60907;53.268;8.764;2022-12-29T02:43:14;5.85;;;3.80;;
72791;SDS011;60907;53.268;8.764;2022-12-29T02:45:51;5.55;;;3.80;;
72791;SDS011;60907;53.268;8.764;2022-12-29T02:48:28;4.53;;;3.38;;
72791;SDS011;60907;53.268;8.764;2022-12-29T02:51:31;6.63;;;3.13;;
72791;SDS011;60907;53.268;8.764;2022-12-29T02:53:55;5.38;;;3.47;;
72791;SDS011;60907;53.268;8.764;2022-12-29T02:56:40;3.88;;;3.05;;
72791;SDS011;60907;53.268;8.764;2022-12-29T02:59:05;4.10;;;3.15;;
72791;SDS011;60907;53.268;8.764;2022-12-29T03:12:39;5.43;;;3.40;;
72791;SDS011;60907;53.268;8.764;2022-12-29T03:15:34;5.35;;;4.07;;
72791;SDS011;60907;53.268;8.764;2022-12-29T03:18:20;5.47;;;3.70;;
72791;SDS011;60907;53.268;8.764;2022-12-29T03:20:52;5.28;;;3.83;;
72791;SDS011;60907;53.268;8.764;2022-12-29T03:23:20;5.30;;;4.15;;
72791;SDS011;60907;53.268;8.764;2022-12-29T03:25:47;7.78;;;4.53;;
72791;SDS011;60907;53.268;8.764;2022-12-29T03:28:23;8.93;;;3.97;;
72791;SDS011;60907;53.268;8.764;2022-12-29T03:30:50;5.88;;;4.25;;
72791;SDS011;60907;53.268;8.764;2022-12-29T03:33:17;5.27;;;3.77;;
72791;SDS011;60907;53.268;8.764;2022-12-29T03:35:46;4.63;;;3.88;;
72791;SDS011;60907;53.268;8.764;2022-12-29T03:40:51;4.80;;;3.80;;
72791;SDS011;60907;53.268;8.764;2022-12-29T03:43:18;4.95;;;3.65;;
72791;SDS011;60907;53.268;8.764;2022-12-29T03:45:44;5.05;;;3.42;;
72791;SDS011;60907;53.268;8.764;2022-12-29T03:48:09;4.10;;;3.38;;
72791;SDS011;60907;53.268;8.764;2022-12-29T03:50:34;5.00;;;3.03;;
72791;SDS011;60907;53.268;8.764;2022-12-29T03:53:00;3.47;;;3.10;;
72791;SDS011;60907;53.268;8.764;2022-12-29T03:55:25;2.80;;;2.50;;
72791;SDS011;60907;53.268;8.764;2022-12-29T03:57:51;4.10;;;2.55;;
72791;SDS011;60907;53.268;8.764;2022-12-29T04:00:16;6.38;;;2.97;;
72791;SDS011;60907;53.268;8.764;2022-12-29T04:02:42;3.90;;;2.83;;
72791;SDS011;60907;53.268;8.764;2022-12-29T04:05:07;3.95;;;3.00;;
72791;SDS011;60907;53.268;8.764;2022-12-29T04:07:33;4.35;;;2.55;;
72791;SDS011;60907;53.268;8.764;2022-12-29T04:09:58;4.40;;;2.90;;
72791;SDS011;60907;53.268;8.764;2022-12-29T04:12:23;3.33;;;2.43;;
72791;SDS011;60907;53.268;8.764;2022-12-29T04:14:49;3.93;;;3.13;;
72791;SDS011;60907;53.268;8.764;2022-12-29T04:17:14;4.23;;;3.00;;
72791;SDS011;60907;53.268;8.764;2022-12-29T04:19:40;4.17;;;2.47;;
72791;SDS011;60907;53.268;8.764;2022-12-29T04:22:05;4.27;;;2.50;;
72791;SDS011;60907;53.268;8.764;2022-12-29T04:24:30;6.15;;;3.97;;
72791;SDS011;60907;53.268;8.764;2022-12-29T04:26:56;6.53;;;3.83;;
72791;SDS011;60907;53.268;8.764;2022-12-29T04:29:21;5.70;;;3.63;;
72791;SDS011;60907;53.268;8.764;2022-12-29T04:31:47;5.90;;;3.25;;
72791;SDS011;60907;53.268;8.764;2022-12-29T04:34:12;4.82;;;3.05;;
72791;SDS011;60907;53.268;8.764;2022-12-29T04:36:37;4.75;;;2.97;;
72791;SDS011;60907;53.268;8.764;2022-12-29T04:39:04;6.80;;;3.70;;
72791;SDS011;60907;53.268;8.764;2022-12-29T04:41:30;4.25;;;2.92;;
72791;SDS011;60907;53.268;8.764;2022-12-29T04:43:56;4.45;;;2.90;;
72791;SDS011;60907;53.268;8.764;2022-12-29T04:46:21;4.90;;;3.60;;
72791;SDS011;60907;53.268;8.764;2022-12-29T04:48:46;5.15;;;3.10;;
72791;SDS011;60907;53.268;8.764;2022-12-29T04:51:12;5.77;;;3.63;;
72791;SDS011;60907;53.268;8.764;2022-12-29T04:53:37;4.72;;;3.50;;
72791;SDS011;60907;53.268;8.764;2022-12-29T04:56:03;6.70;;;3.83;;
72791;SDS011;60907;53.268;8.764;2022-12-29T04:58:28;5.32;;;3.60;;
72791;SDS011;60907;53.268;8.764;2022-12-29T05:00:54;5.43;;;3.20;;
72791;SDS011;60907;53.268;8.764;2022-12-29T05:03:19;4.35;;;3.17;;
72791;SDS011;60907;53.268;8.764;2022-12-29T05:05:45;4.78;;;2.85;;
72791;SDS011;60907;53.268;8.764;2022-12-29T05:08:10;3.65;;;2.72;;
72791;SDS011;60907;53.268;8.764;2022-12-29T05:10:35;4.18;;;2.35;;
72791;SDS011;60907;53.268;8.764;2022-12-29T05:13:01;2.80;;;2.15;;
72791;SDS011;60907;53.268;8.764;2022-12-29T05:15:26;2.90;;;2.45;;
72791;SDS011;60907;53.268;8.764;2022-12-29T05:17:52;2.58;;;2.13;;
72791;SDS011;60907;53.268;8.764;2022-12-29T05:20:17;3.70;;;2.00;;
72791;SDS011;60907;53.268;8.764;2022-12-29T05:22:43;2.88;;;1.67;;
72791;SDS011;60907;53.268;8.764;2022-12-29T05:25:08;2.70;;;1.60;;
72791;SDS011;60907;53.268;8.764;2022-12-29T05:27:34;2.60;;;1.45;;
72791;SDS011;60907;53.268;8.764;2022-12-29T05:29:59;3.30;;;1.63;;
72791;SDS011;60907;53.268;8.764;2022-12-29T05:32:25;2.67;;;1.50;;
72791;SDS011;60907;53.268;8.764;2022-12-29T05:34:50;2.28;;;1.42;;
72791;SDS011;60907;53.268;8.764;2022-12-29T05:37:16;3.60;;;1.90;;
72791;SDS011;60907;53.268;8.764;2022-12-29T05:39:41;1.98;;;1.00;;
72791;SDS011;60907;53.268;8.764;2022-12-29T05:42:06;2.20;;;1.30;;
72791;SDS011;60907;53.268;8.764;2022-12-29T05:44:32;2.35;;;1.10;;
72791;SDS011;60907;53.268;8.764;2022-12-29T05:46:57;1.30;;;0.80;;
72791;SDS011;60907;53.268;8.764;2022-12-29T05:49:22;1.50;;;0.80;;
72791;SDS011;60907;53.268;8.764;2022-12-29T05:51:48;2.15;;;1.00;;
72791;SDS011;60907;53.268;8.764;2022-12-29T05:54:13;1.97;;;0.80;;
72791;SDS011;60907;53.268;8.764;2022-12-29T05:56:39;2.75;;;0.60;;
72791;SDS011;60907;53.268;8.764;2022-12-29T05:59:04;2.13;;;0.50;;
72791;SDS011;60907;53.268;8.764;2022-12-29T06:01:29;1.80;;;0.60;;
72791;SDS011;60907;53.268;8.764;2022-12-29T06:03:55;1.10;;;0.60;;
72791;SDS011;60907;53.268;8.764;2022-12-29T06:06:20;2.70;;;0.70;;
72791;SDS011;60907;53.268;8.764;2022-12-29T06:08:46;1.85;;;0.68;;
72791;SDS011;60907;53.268;8.764;2022-12-29T06:11:11;1.05;;;0.52;;
72791;SDS011;60907;53.268;8.764;2022-12-29T06:13:37;0.75;;;0.38;;
72791;SDS011;60907;53.268;8.764;2022-12-29T06:16:03;1.92;;;0.35;;
72791;SDS011;60907;53.268;8.764;2022-12-29T06:18:28;2.35;;;0.50;;
72791;SDS011;60907;53.268;8.764;2022-12-29T06:20:54;0.82;;;0.32;;
72791;SDS011;60907;53.268;8.764;2022-12-29T06:23:24;1.08;;;0.45;;
72791;SDS011;60907;53.268;8.764;2022-12-29T06:25:50;2.47;;;0.47;;
72791;SDS011;60907;53.268;8.764;2022-12-29T06:28:15;2.53;;;0.50;;
72791;SDS011;60907;53.268;8.764;2022-12-29T06:30:43;2.67;;;0.45;;
72791;SDS011;60907;53.268;8.764;2022-12-29T06:33:12;1.77;;;0.45;;
72791;SDS011;60907;53.268;8.764;2022-12-29T06:35:37;0.82;;;0.52;;
72791;SDS011;60907;53.268;8.764;2022-12-29T06:38:03;1.75;;;0.73;;
72791;SDS011;60907;53.268;8.764;2022-12-29T06:40:28;1.35;;;0.55;;
72791;SDS011;60907;53.268;8.764;2022-12-29T06:42:54;1.27;;;0.47;;
72791;SDS011;60907;53.268;8.764;2022-12-29T06:45:19;1.48;;;0.75;;
72791;SDS011;60907;53.268;8.764;2022-12-29T06:47:45;0.82;;;0.63;;
72791;SDS011;60907;53.268;8.764;2022-12-29T06:50:10;2.47;;;0.63;;
72791;SDS011;60907;53.268;8.764;2022-12-29T06:52:35;0.50;;;0.40;;
72791;SDS011;60907;53.268;8.764;2022-12-29T06:55:01;1.93;;;1.07;;
72791;SDS011;60907;53.268;8.764;2022-12-29T06:57:26;1.13;;;0.70;;
72791;SDS011;60907;53.268;8.764;2022-12-29T06:59:52;2.97;;;0.50;;
72791;SDS011;60907;53.268;8.764;2022-12-29T07:02:20;2.22;;;0.60;;
72791;SDS011;60907;53.268;8.764;2022-12-29T07:04:46;2.83;;;0.52;;
72791;SDS011;60907;53.268;8.764;2022-12-29T07:07:11;1.07;;;0.40;;
72791;SDS011;60907;53.268;8.764;2022-12-29T07:09:37;1.23;;;0.43;;
72791;SDS011;60907;53.268;8.764;2022-12-29T07:12:02;1.33;;;0.50;;
72791;SDS011;60907;53.268;8.764;2022-12-29T07:14:28;1.00;;;0.60;;
72791;SDS011;60907;53.268;8.764;2022-12-29T07:16:53;3.60;;;0.75;;
72791;SDS011;60907;53.268;8.764;2022-12-29T07:19:19;1.60;;;0.63;;
72791;SDS011;60907;53.268;8.764;2022-12-29T07:21:45;2.15;;;0.60;;
72791;SDS011;60907;53.268;8.764;2022-12-29T07:24:10;2.88;;;1.05;;
72791;SDS011;60907;53.268;8.764;2022-12-29T07:26:36;2.55;;;0.88;;
72791;SDS011;60907;53.268;8.764;2022-12-29T07:29:02;0.98;;;0.55;;
72791;SDS011;60907;53.268;8.764;2022-12-29T07:31:28;1.88;;;0.65;;
72791;SDS011;60907;53.268;8.764;2022-12-29T07:33:53;2.78;;;0.68;;
72791;SDS011;60907;53.268;8.764;2022-12-29T07:36:19;2.67;;;0.70;;
72791;SDS011;60907;53.268;8.764;2022-12-29T07:38:44;5.15;;;0.95;;
72791;SDS011;60907;53.268;8.764;2022-12-29T07:41:10;2.13;;;0.63;;
72791;SDS011;60907;53.268;8.764;2022-12-29T07:43:35;1.35;;;0.80;;
72791;SDS011;60907;53.268;8.764;2022-12-29T07:46:01;1.58;;;0.55;;
72791;SDS011;60907;53.268;8.764;2022-12-29T07:48:26;1.77;;;0.50;;
72791;SDS011;60907;53.268;8.764;2022-12-29T07:50:52;1.85;;;0.65;;
72791;SDS011;60907;53.268;8.764;2022-12-29T07:53:18;2.15;;;0.63;;
72791;SDS011;60907;53.268;8.764;2022-12-29T07:55:44;4.20;;;0.70;;
72791;SDS011;60907;53.268;8.764;2022-12-29T07:58:09;1.80;;;0.50;;
72791;SDS011;60907;53.268;8.764;2022-12-29T08:00:35;1.88;;;0.55;;
72791;SDS011;60907;53.268;8.764;2022-12-29T08:03:00;1.48;;;0.77;;
72791;SDS011;60907;53.268;8.764;2022-12-29T08:05:26;1.65;;;0.52;;
72791;SDS011;60907;53.268;8.764;2022-12-29T08:07:51;2.58;;;0.75;;
72791;SDS011;60907;53.268;8.764;2022-12-29T08:10:17;1.80;;;0.60;;
72791;SDS011;60907;53.268;8.764;2022-12-29T08:12:42;2.38;;;0.60;;
72791;SDS011;60907;53.268;8.764;2022-12-29T08:15:08;2.35;;;0.80;;
72791;SDS011;60907;53.268;8.764;2022-12-29T08:17:35;2.00;;;0.70;;
72791;SDS011;60907;53.268;8.764;2022-12-29T08:20:00;1.38;;;0.55;;
72791;SDS011;60907;53.268;8.764;2022-12-29T08:22:26;1.70;;;0.80;;
72791;SDS011;60907;53.268;8.764;2022-12-29T08:24:51;2.50;;;0.43;;
72791;SDS011;60907;53.268;8.764;2022-12-29T08:27:17;1.60;;;0.50;;
72791;SDS011;60907;53.268;8.764;2022-12-29T08:29:42;1.60;;;0.52;;
72791;SDS011;60907;53.268;8.764;2022-12-29T08:32:08;2.03;;;0.60;;
72791;SDS011;60907;53.268;8.764;2022-12-29T08:34:33;1.48;;;0.32;;
72791;SDS011;60907;53.268;8.764;2022-12-29T08:36:59;1.60;;;0.30;;
72791;SDS011;60907;53.268;8.764;2022-12-29T08:39:24;2.13;;;0.73;;
72791;SDS011;60907;53.268;8.764;2022-12-29T08:41:50;1.95;;;0.43;;
72791;SDS011;60907;53.268;8.764;2022-12-29T08:44:15;0.93;;;0.28;;
72791;SDS011;60907;53.268;8.764;2022-12-29T08:46:40;4.15;;;0.57;;
72791;SDS011;60907;53.268;8.764;2022-12-29T08:49:06;3.00;;;0.52;;
72791;SDS011;60907;53.268;8.764;2022-12-29T08:51:32;4.03;;;0.35;;
72791;SDS011;60907;53.268;8.764;2022-12-29T08:53:57;3.33;;;0.30;;
72791;SDS011;60907;53.268;8.764;2022-12-29T08:56:23;3.45;;;0.60;;
72791;SDS011;60907;53.268;8.764;2022-12-29T08:58:49;3.20;;;0.77;;
72791;SDS011;60907;53.268;8.764;2022-12-29T09:01:15;4.65;;;0.85;;
72791;SDS011;60907;53.268;8.764;2022-12-29T09:03:41;2.28;;;0.65;;
72791;SDS011;60907;53.268;8.764;2022-12-29T09:06:06;3.30;;;0.70;;
72791;SDS011;60907;53.268;8.764;2022-12-29T09:08:32;0.85;;;0.43;;
72791;SDS011;60907;53.268;8.764;2022-12-29T09:11:07;1.75;;;0.90;;
72791;SDS011;60907;53.268;8.764;2022-12-29T09:13:37;5.00;;;0.75;;
72791;SDS011;60907;53.268;8.764;2022-12-29T09:16:03;3.42;;;1.75;;
72791;SDS011;60907;53.268;8.764;2022-12-29T09:18:29;5.07;;;1.08;;
72791;SDS011;60907;53.268;8.764;2022-12-29T09:20:58;4.13;;;0.80;;
72791;SDS011;60907;53.268;8.764;2022-12-29T09:23:25;3.38;;;0.63;;
72791;SDS011;60907;53.268;8.764;2022-12-29T09:25:51;4.22;;;0.63;;
72791;SDS011;60907;53.268;8.764;2022-12-29T09:28:16;3.25;;;0.82;;
72791;SDS011;60907;53.268;8.764;2022-12-29T09:30:42;3.97;;;1.15;;
72791;SDS011;60907;53.268;8.764;2022-12-29T09:33:07;2.77;;;0.40;;
72791;SDS011;60907;53.268;8.764;2022-12-29T09:35:32;0.95;;;0.55;;
72791;SDS011;60907;53.268;8.764;2022-12-29T09:37:58;1.20;;;0.40;;
72791;SDS011;60907;53.268;8.764;2022-12-29T09:43:15;5.50;;;0.75;;
72791;SDS011;60907;53.268;8.764;2022-12-29T09:48:37;4.60;;;0.75;;
72791;SDS011;60907;53.268;8.764;2022-12-29T09:51:16;5.35;;;0.75;;
72791;SDS011;60907;53.268;8.764;2022-12-29T09:53:51;5.47;;;1.15;;
72791;SDS011;60907;53.268;8.764;2022-12-29T09:56:21;4.57;;;0.70;;
72791;SDS011;60907;53.268;8.764;2022-12-29T09:59:21;3.20;;;0.70;;
72791;SDS011;60907;53.268;8.764;2022-12-29T10:01:45;2.70;;;0.73;;
72791;SDS011;60907;53.268;8.764;2022-12-29T10:04:13;1.58;;;0.35;;
72791;SDS011;60907;53.268;8.764;2022-12-29T10:06:45;4.00;;;0.60;;
72791;SDS011;60907;53.268;8.764;2022-12-29T10:09:21;5.43;;;0.40;;
72791;SDS011;60907;53.268;8.764;2022-12-29T10:12:11;2.45;;;0.50;;
72791;SDS011;60907;53.268;8.764;2022-12-29T10:17:58;3.22;;;0.55;;
72791;SDS011;60907;53.268;8.764;2022-12-29T10:20:33;7.82;;;0.68;;
72791;SDS011;60907;53.268;8.764;2022-12-29T10:25:48;1.80;;;0.22;;
72791;SDS011;60907;53.268;8.764;2022-12-29T10:28:19;1.67;;;0.20;;
72791;SDS011;60907;53.268;8.764;2022-12-29T10:30:50;3.53;;;0.40;;
72791;SDS011;60907;53.268;8.764;2022-12-29T10:33:30;1.60;;;0.32;;
72791;SDS011;60907;53.268;8.764;2022-12-29T10:36:12;7.50;;;0.82;;
72791;SDS011;60907;53.268;8.764;2022-12-29T10:38:43;1.33;;;0.50;;
72791;SDS011;60907;53.268;8.764;2022-12-29T10:41:48;1.83;;;0.38;;
72791;SDS011;60907;53.268;8.764;2022-12-29T10:44:23;3.85;;;0.63;;
72791;SDS011;60907;53.268;8.764;2022-12-29T10:46:55;4.40;;;0.40;;
72791;SDS011;60907;53.268;8.764;2022-12-29T10:49:25;2.05;;;0.35;;
72791;SDS011;60907;53.268;8.764;2022-12-29T10:51:51;0.75;;;0.30;;
72791;SDS011;60907;53.268;8.764;2022-12-29T10:54:31;2.72;;;0.35;;
72791;SDS011;60907;53.268;8.764;2022-12-29T10:57:03;3.90;;;0.35;;
72791;SDS011;60907;53.268;8.764;2022-12-29T10:59:33;4.40;;;0.40;;
72791;SDS011;60907;53.268;8.764;2022-12-29T11:02:05;3.50;;;0.60;;
72791;SDS011;60907;53.268;8.764;2022-12-29T11:04:51;3.50;;;0.40;;
72791;SDS011;60907;53.268;8.764;2022-12-29T11:07:20;1.52;;;0.32;;
72791;SDS011;60907;53.268;8.764;2022-12-29T11:09:46;3.50;;;0.60;;
72791;SDS011;60907;53.268;8.764;2022-12-29T11:12:24;1.38;;;0.30;;
72791;SDS011;60907;53.268;8.764;2022-12-29T11:15:13;4.43;;;0.35;;
72791;SDS011;60907;53.268;8.764;2022-12-29T11:17:47;2.25;;;0.40;;
72791;SDS011;60907;53.268;8.764;2022-12-29T11:20:32;3.70;;;0.60;;
72791;SDS011;60907;53.268;8.764;2022-12-29T11:23:03;4.05;;;0.70;;
72791;SDS011;60907;53.268;8.764;2022-12-29T11:25:29;2.88;;;0.40;;
72791;SDS011;60907;53.268;8.764;2022-12-29T11:28:16;2.53;;;0.50;;
72791;SDS011;60907;53.268;8.764;2022-12-29T11:30:41;5.13;;;0.55;;
72791;SDS011;60907;53.268;8.764;2022-12-29T11:33:07;2.22;;;0.50;;
72791;SDS011;60907;53.268;8.764;2022-12-29T11:38:01;4.15;;;0.70;;
72791;SDS011;60907;53.268;8.764;2022-12-29T11:40:27;4.25;;;0.90;;
72791;SDS011;60907;53.268;8.764;2022-12-29T11:43:00;4.35;;;0.60;;
72791;SDS011;60907;53.268;8.764;2022-12-29T11:45:35;5.57;;;0.47;;
72791;SDS011;60907;53.268;8.764;2022-12-29T11:48:39;2.42;;;0.40;;
72791;SDS011;60907;53.268;8.764;2022-12-29T11:50:55;4.18;;;0.73;;
72791;SDS011;60907;53.268;8.764;2022-12-29T11:53:38;3.08;;;0.63;;
72791;SDS011;60907;53.268;8.764;2022-12-29T11:56:12;4.25;;;0.68;;
72791;SDS011;60907;53.268;8.764;2022-12-29T11:58:40;5.72;;;0.52;;
72791;SDS011;60907;53.268;8.764;2022-12-29T12:01:22;4.57;;;0.80;;
72791;SDS011;60907;53.268;8.764;2022-12-29T12:04:01;2.55;;;0.30;;
72791;SDS011;60907;53.268;8.764;2022-12-29T12:06:29;1.30;;;0.20;;
72791;SDS011;60907;53.268;8.764;2022-12-29T12:09:14;2.88;;;0.30;;
72791;SDS011;60907;53.268;8.764;2022-12-29T12:11:44;2.85;;;0.40;;
72791;SDS011;60907;53.268;8.764;2022-12-29T12:17:33;4.35;;;0.32;;
72791;SDS011;60907;53.268;8.764;2022-12-29T12:20:21;2.30;;;0.35;;
72791;SDS011;60907;53.268;8.764;2022-12-29T12:26:21;1.00;;;0.20;;
72791;SDS011;60907;53.268;8.764;2022-12-29T12:33:57;1.77;;;0.68;;
72791;SDS011;60907;53.268;8.764;2022-12-29T12:51:03;2.92;;;0.75;;
72791;SDS011;60907;53.268;8.764;2022-12-29T13:01:35;4.43;;;0.75;;
72791;SDS011;60907;53.268;8.764;2022-12-29T13:24:16;2.42;;;0.45;;
72791;SDS011;60907;53.268;8.764;2022-12-29T13:37:56;2.63;;;0.50;;
72791;SDS011;60907;53.268;8.764;2022-12-29T13:40:26;4.15;;;0.57;;
72791;SDS011;60907;53.268;8.764;2022-12-29T13:42:53;3.17;;;0.40;;
72791;SDS011;60907;53.268;8.764;2022-12-29T13:45:24;4.25;;;0.47;;
72791;SDS011;60907;53.268;8.764;2022-12-29T13:50:19;2.00;;;0.32;;
72791;SDS011;60907;53.268;8.764;2022-12-29T13:55:20;4.43;;;0.63;;
72791;SDS011;60907;53.268;8.764;2022-12-29T14:00:40;8.90;;;0.90;;
72791;SDS011;60907;53.268;8.764;2022-12-29T14:03:54;2.20;;;0.50;;
72791;SDS011;60907;53.268;8.764;2022-12-29T14:09:03;2.30;;;0.50;;
72791;SDS011;60907;53.268;8.764;2022-12-29T14:11:37;5.85;;;0.93;;
72791;SDS011;60907;53.268;8.764;2022-12-29T14:14:11;5.03;;;0.88;;
72791;SDS011;60907;53.268;8.764;2022-12-29T14:16:39;4.07;;;0.82;;
72791;SDS011;60907;53.268;8.764;2022-12-29T14:19:11;6.22;;;1.08;;
72791;SDS011;60907;53.268;8.764;2022-12-29T14:21:53;4.75;;;0.73;;
72791;SDS011;60907;53.268;8.764;2022-12-29T14:24:28;6.88;;;1.40;;
72791;SDS011;60907;53.268;8.764;2022-12-29T14:32:35;3.03;;;0.65;;
72791;SDS011;60907;53.268;8.764;2022-12-29T14:38:14;11.23;;;0.98;;
72791;SDS011;60907;53.268;8.764;2022-12-29T14:40:41;4.97;;;0.90;;
72791;SDS011;60907;53.268;8.764;2022-12-29T14:43:11;4.80;;;0.90;;
72791;SDS011;60907;53.268;8.764;2022-12-29T14:45:38;4.03;;;0.95;;
72791;SDS011;60907;53.268;8.764;2022-12-29T14:51:17;6.70;;;0.90;;
72791;SDS011;60907;53.268;8.764;2022-12-29T14:53:45;7.13;;;1.20;;
72791;SDS011;60907;53.268;8.764;2022-12-29T14:56:11;5.13;;;0.90;;
72791;SDS011;60907;53.268;8.764;2022-12-29T15:01:47;4.38;;;1.25;;
72791;SDS011;60907;53.268;8.764;2022-12-29T15:04:16;5.30;;;1.15;;
72791;SDS011;60907;53.268;8.764;2022-12-29T15:06:47;4.13;;;1.13;;
72791;SDS011;60907;53.268;8.764;2022-12-29T15:11:54;5.55;;;0.80;;
72791;SDS011;60907;53.268;8.764;2022-12-29T15:16:56;3.20;;;0.88;;
72791;SDS011;60907;53.268;8.764;2022-12-29T15:19:22;5.45;;;0.82;;
72791;SDS011;60907;53.268;8.764;2022-12-29T15:21:48;2.40;;;1.13;;
72791;SDS011;60907;53.268;8.764;2022-12-29T15:24:13;3.47;;;0.60;;
72791;SDS011;60907;53.268;8.764;2022-12-29T15:26:44;8.10;;;1.00;;
72791;SDS011;60907;53.268;8.764;2022-12-29T15:31:59;2.70;;;0.95;;
72791;SDS011;60907;53.268;8.764;2022-12-29T15:34:29;8.02;;;1.25;;
72791;SDS011;60907;53.268;8.764;2022-12-29T15:36:55;5.10;;;1.00;;
72791;SDS011;60907;53.268;8.764;2022-12-29T15:39:23;6.43;;;0.73;;
72791;SDS011;60907;53.268;8.764;2022-12-29T15:41:54;3.33;;;0.57;;
72791;SDS011;60907;53.268;8.764;2022-12-29T15:44:38;3.28;;;0.75;;
72791;SDS011;60907;53.268;8.764;2022-12-29T15:47:06;4.22;;;0.70;;
72791;SDS011;60907;53.268;8.764;2022-12-29T15:49:53;4.03;;;0.70;;
72791;SDS011;60907;53.268;8.764;2022-12-29T15:52:21;4.97;;;1.58;;
72791;SDS011;60907;53.268;8.764;2022-12-29T15:54:48;2.30;;;0.52;;
72791;SDS011;60907;53.268;8.764;2022-12-29T15:57:58;3.30;;;0.90;;
72791;SDS011;60907;53.268;8.764;2022-12-29T16:00:24;2.78;;;0.52;;
72791;SDS011;60907;53.268;8.764;2022-12-29T16:02:51;5.25;;;1.08;;
72791;SDS011;60907;53.268;8.764;2022-12-29T16:05:17;5.35;;;1.02;;
72791;SDS011;60907;53.268;8.764;2022-12-29T16:07:57;3.08;;;0.88;;
72791;SDS011;60907;53.268;8.764;2022-12-29T16:10:36;3.40;;;0.70;;
72791;SDS011;60907;53.268;8.764;2022-12-29T16:16:06;5.50;;;1.20;;
72791;SDS011;60907;53.268;8.764;2022-12-29T16:18:34;4.38;;;1.00;;
72791;SDS011;60907;53.268;8.764;2022-12-29T16:23:26;5.30;;;0.63;;
72791;SDS011;60907;53.268;8.764;2022-12-29T16:25:54;8.73;;;1.17;;
72791;SDS011;60907;53.268;8.764;2022-12-29T16:28:21;6.75;;;1.00;;
72791;SDS011;60907;53.268;8.764;2022-12-29T16:31:04;5.50;;;1.10;;
72791;SDS011;60907;53.268;8.764;2022-12-29T16:33:38;6.68;;;1.15;;
72791;SDS011;60907;53.268;8.764;2022-12-29T16:36:31;5.22;;;1.25;;
72791;SDS011;60907;53.268;8.764;2022-12-29T16:41:58;5.20;;;0.90;;
72791;SDS011;60907;53.268;8.764;2022-12-29T16:44:27;3.25;;;1.10;;
72791;SDS011;60907;53.268;8.764;2022-12-29T16:49:24;4.20;;;1.10;;
72791;SDS011;60907;53.268;8.764;2022-12-29T16:51:51;6.60;;;1.40;;
72791;SDS011;60907;53.268;8.764;2022-12-29T16:54:20;3.92;;;1.05;;
72791;SDS011;60907;53.268;8.764;2022-12-29T16:56:48;8.50;;;1.67;;
72791;SDS011;60907;53.268;8.764;2022-12-29T17:01:54;7.50;;;1.70;;
72791;SDS011;60907;53.268;8.764;2022-12-29T17:04:20;4.38;;;1.52;;
72791;SDS011;60907;53.268;8.764;2022-12-29T17:06:45;5.00;;;1.27;;
72791;SDS011;60907;53.268;8.764;2022-12-29T17:09:21;6.90;;;1.65;;
72791;SDS011;60907;53.268;8.764;2022-12-29T17:11:48;5.53;;;1.08;;
72791;SDS011;60907;53.268;8.764;2022-12-29T17:16:48;8.57;;;2.03;;
72791;SDS011;60907;53.268;8.764;2022-12-29T17:19:15;6.53;;;1.42;;
72791;SDS011;60907;53.268;8.764;2022-12-29T17:21:45;5.63;;;1.48;;
72791;SDS011;60907;53.268;8.764;2022-12-29T17:24:13;7.50;;;2.17;;
72791;SDS011;60907;53.268;8.764;2022-12-29T17:26:41;8.80;;;2.10;;
72791;SDS011;60907;53.268;8.764;2022-12-29T17:29:09;9.48;;;2.20;;
72791;SDS011;60907;53.268;8.764;2022-12-29T17:31:42;2.97;;;1.42;;
72791;SDS011;60907;53.268;8.764;2022-12-29T17:34:08;10.60;;;1.80;;
72791;SDS011;60907;53.268;8.764;2022-12-29T17:36:36;6.07;;;1.58;;
72791;SDS011;60907;53.268;8.764;2022-12-29T17:39:02;6.43;;;1.80;;
72791;SDS011;60907;53.268;8.764;2022-12-29T17:41:27;4.28;;;1.42;;
72791;SDS011;60907;53.268;8.764;2022-12-29T17:43:58;6.95;;;1.75;;
72791;SDS011;60907;53.268;8.764;2022-12-29T17:46:24;4.22;;;2.42;;
72791;SDS011;60907;53.268;8.764;2022-12-29T17:48:49;7.87;;;2.10;;